To NAV CANADA Home Page Login to a new session Search on AWWS site Disclaimer Vers la page française équivalente Tips FAQ What's new on the site To the Forecasts and Observations / NOTAM section To "File a Flight Plan" website Publications and other links Update of the User's profile FIC Telephone Numbers My Weather Data Folder Route Weather Data Regional Weather Data Local Weather Data To the Forecasts and Observations / NOTAM section
Request Generated 12/12/2018 at 03:50:35 UTC . Weather information available at that time is displayed.


Save this request - Inactive

METAR/TAF

HAMILTON/ON    

METAR CYHM 120300Z 25009KT 6SM -SN SCT053 BKN064 M02/M03 A3000 RMK SC4SC3 SLP171=
METAR CYHM 120200Z 26010G16KT 5SM -SN FEW009 SCT052 BKN063 M02/M03 A2999 RMK SF2SC2SC3 SLP168=
METAR CYHM 120100Z 26012G17KT 5SM -SN FEW009 OVC044 M02/M03 A2999 RMK SF2SC6 SLP167=

TAF AMD CYHM 120338Z 1203/1224 26010KT P6SM SCT015 BKN050 TEMPO
1203/1204 5SM -SN BKN015 OVC040
FM120400 27008KT P6SM BKN020 TEMPO 1204/1209 SCT020
FM120900 VRB03KT P6SM FEW006 BKN015 PROB30 1209/1211 BKN006
FM121100 VRB03KT P6SM SCT030 PROB30 1211/1215 2SM BR BKN006
FM121500 VRB03KT P6SM BKN020
FM122100 08008KT P6SM BKN020 BKN220
RMK NXT FCST BY 120600Z=

KITCHENER/WATERLOO/ON    (show WxCam)

SPECI CYKF 120338Z AUTO 26007KT 4SM -SN SCT008 OVC032 M02/M03 A2999 RMK SLP172=
SPECI CYKF 120322Z AUTO 26008KT 4SM -SN BKN008 BKN015 OVC045 M02/M03 A2999 RMK SLP172=
SPECI CYKF 120312Z AUTO 26007KT 4SM BR BKN010 OVC045 M01/M03 A2999 RMK SLP171=
METAR CYKF 120300Z AUTO 26010KT 4SM -SN BKN010 OVC043 M01/M03 A2998 RMK SLP170=
SPECI CYKF 120258Z AUTO 26010KT 4SM -SN BKN010 OVC043 M02/M03 A2998 RMK SLP170=
SPECI CYKF 120253Z AUTO 25009KT 4SM BR BKN010 OVC043 M02/M03 A2998 RMK SLP170=
SPECI CYKF 120247Z AUTO 26010KT 4SM -SN BKN010 OVC043 M02/M03 A2998 RMK SLP170=
SPECI CYKF 120243Z AUTO 27007KT 4SM -SN BKN008 BKN013 OVC043 M02/M03 A2998 RMK SLP169=
SPECI CYKF 120222Z AUTO 27007KT 4SM BR BKN008 OVC012 M02/M03 A2998 RMK SLP168=
SPECI CYKF 120212Z AUTO 26008KT 4SM -SN BKN008 OVC012 M02/M03 A2998 RMK SLP168=
SPECI CYKF 120208Z AUTO 27008KT 4SM BR BKN008 OVC012 M02/M03 A2998 RMK SLP167=
METAR CYKF 120200Z AUTO 27008KT 4SM -SN BKN008 BKN012 OVC055 M02/M03 A2998 RMK SLP167=
SPECI CYKF 120139Z AUTO 26010KT 3SM -SN OVC008 M02/M03 A2997 RMK SLP166=
SPECI CYKF 120123Z AUTO 26008KT 3SM BR BKN010 OVC014 M02/M03 A2997 RMK SLP165=
METAR CYKF 120100Z AUTO 25011G16KT 3SM -SN OVC010 M02/M03 A2997 RMK SLP164=

TAF CYKF 120138Z 1202/1214 22010KT 21/2SM -SN BR BKN008 OVC020 TEMPO
1202/1206 6SM BR SCT010 OVC020
FM120600 30008KT 2SM BR BKN010 TEMPO 1206/1214 6SM BR SCT010
PROB30 1206/1214 1/2SM FZFG VV002
RMK FCST BASED ON AUTO OBS. NXT FCST BY 120800Z=

ST. CATHARINES/NIAGARA DISTRICT/ON    

LWIS CYSN 120300Z AUTO 25008KT M01/M02 A3001=
METAR CYSN 120200Z 26008KT 8SM -SN SCT017 OVC045 M00/M03 A3000 RMK SC4SC4 LAST STFD OBS / NEXT 121200UTC SLP166=
METAR CYSN 120100Z 25008KT 8SM -SN OVC047 M01/M03 A2999 RMK SC8 SLP163=

*** REMARK        : Forecast period has ended; this was the last TAF issued
*** REMARQUE : La période de prévision est échue; ceci était le dernier TAF qui a été émis
TAF CYSN 111939Z 1120/1202 24006KT P6SM -SN OVC030 TEMPO 1120/1121
21/2SM -SN OVC020
FM112100 26012G22KT 5SM -SN BKN020 BKN050 TEMPO 1121/1202 P6SM
NSW BKN025 BKN050
RMK NXT FCST WILL BE ISSUED AT 121345Z=

TORONTO/BILLY BISHOP TORONTO CITY AIRPORT/ON    (show WxCam)

SPECI CYTZ 120343Z AUTO 28009KT 6SM -RA OVC060 01/M02 A3000 RMK SLP165=
SPECI CYTZ 120335Z AUTO 29009KT 6SM HZ OVC060 01/M02 A3000 RMK SLP163=
SPECI CYTZ 120334Z AUTO 29009KT 6SM -RA HZ OVC060 01/M02 A3000 RMK SLP163=
SPECI CYTZ 120322Z AUTO 29008KT 5SM -RA OVC060 01/M02 A3000 RMK SLP164=
SPECI CYTZ 120314Z AUTO 29007KT 250V310 5SM HZ OVC060 01/M02 A3000 RMK SLP164=
METAR CYTZ 120300Z AUTO 28007KT 5SM -RA OVC060 01/M02 A3000 RMK SLP163=
SPECI CYTZ 120211Z AUTO 27009KT 5SM -RA BR FEW048 OVC065 00/M02 A3000 RMK SLP163=
SPECI CYTZ 120205Z AUTO 28009KT 5SM -RASN FEW048 OVC065 00/M03 A2999 RMK SLP162=
METAR CYTZ 120200Z AUTO 28010KT 5SM -SN OVC065 00/M02 A3000 RMK SLP163=
SPECI CYTZ 120155Z AUTO 28009KT 5SM -SN FEW048 OVC065 00/M02 A2999 RMK SLP162=
SPECI CYTZ 120144Z AUTO 27008KT 5SM -SN -UP SCT040 OVC070 00/M03 A2999 RMK SLP162=
SPECI CYTZ 120135Z AUTO 26007KT 5SM -SN BKN040 OVC070 00/M02 A2999 RMK SLP162=
SPECI CYTZ 120125Z AUTO 27008KT 5SM -SN -UP OVC038 00/M03 A2999 RMK SLP162=
SPECI CYTZ 120101Z AUTO 27008KT 5SM -SN FEW018 BKN032 BKN041 OVC075 00/M03 A2999 RMK SLP161=
METAR CYTZ 120100Z AUTO 27009KT 5SM -SN -UP FEW018 BKN032 BKN041 OVC075 00/M03 A2999 RMK SLP161=

TAF AMD CYTZ 120314Z 1203/1302 28008KT P6SM FEW020 OVC040 TEMPO
1203/1206 5SM -SN BR
FM120600 31010KT P6SM SCT020
FM121200 33006KT P6SM FEW020 PROB30 1212/1214 2SM BR SCT006
FM121400 35005KT P6SM SCT008 BKN010
FM121700 09010KT P6SM BKN020
FM122100 09015KT P6SM BKN025 BKN200
FM130000 09015KT P6SM SCT030 BKN140
RMK FCST BASED ON AUTO OBS. NXT FCST BY 120800Z=

TORONTO/LESTER B. PEARSON INTL/ON    

SPECI CYYZ 120317Z 27006KT 12SM SCT030 OVC059 M01/M03 A2999 RMK SC3SC5 SLP165=
METAR CYYZ 120300Z 27007KT 10SM -SN SCT029 OVC056 M01/M03 A2999 RMK SC4SC4 SLP163=
METAR CYYZ 120200Z 28008KT 10SM -SN FEW015 OVC061 M01/M03 A2998 RMK SF2SC6 SLP162=
METAR CYYZ 120100Z 28008KT 10SM -SN SCT045 OVC070 M01/M04 A2997 RMK SC3AC5 SLP160=

TAF CYYZ 120238Z 1203/1306 29008KT P6SM FEW015 OVC060 TEMPO 1203/1206
P6SM -SN BKN015 OVC050
FM120600 31010KT P6SM SCT020 TEMPO 1206/1212 BKN020
FM121200 VRB03KT P6SM SCT008 PROB30 1212/1215 2SM BR BKN008
FM121500 35005KT P6SM SCT008 BKN012
FM121700 09010KT P6SM BKN020
FM122100 11010KT P6SM BKN025 BKN200
FM130000 11010KT P6SM SCT030 BKN140
FM130300 11010KT 6SM -SN BKN030 BKN120
RMK NXT FCST BY 120600Z=

BORDEN/ON    

SPECI CYBN 120340Z AUTO 28003KT 5SM OVC022 M01/M02 A2998=
METAR CYBN 120300Z AUTO 24002KT 5SM OVC026 M01/M03 A2998 RMK SLP163=
SPECI CYBN 120249Z AUTO 25002KT 6SM OVC026 M01/M03 A2998=
SPECI CYBN 120219Z AUTO 00000KT 6SM OVC017 M01/M02 A2997=
SPECI CYBN 120216Z AUTO 00000KT 6SM -SN OVC017 M01/M03 A2997=
METAR CYBN 120200Z AUTO 26002KT 6SM OVC017 OVC050 M01/M03 A2997 RMK SLP159=
METAR CYBN 120100Z AUTO 28003KT 5SM OVC021 OVC044 M01/M03 A2996 RMK SLP155=

TAF CYBN 112330Z 1200/1212 VRB03KT 6SM -SN BKN025 OVC040 TEMPO
1200/1212 2SM -SN BR OVC020
RMK FCST BASED ON AUTO OBS. NXT FCST BY 120600Z=

TORONTO/BUTTONVILLE MUNICIPAL/ON    

SPECI CYKZ 120320Z 27004KT 10SM OVC055 M01/M03 A2997 RMK SC8 SLP161=
METAR CYKZ 120300Z 26004KT 10SM -SN OVC043 M01/M03 A2997 RMK SC8 SLP160=
METAR CYKZ 120200Z 27003KT 4SM -SN BKN017 OVC028 M01/M03 A2997 RMK SC5SC3 SLP160=
METAR CYKZ 120100Z 26005KT 5SM -SN SCT045 OVC065 M01/M03 A2996 RMK SC3SC5 SLP156=

TAF CYKZ 112339Z 1200/1212 25005KT P6SM -SN SCT010 OVC050 TEMPO
1200/1201 21/2SM -SN BKN010 OVC050
FM120100 26010KT P6SM -SN BKN030 OVC050 TEMPO 1201/1203 4SM -SN
BKN020 BKN050
FM120300 29012KT P6SM OVC020 TEMPO 1203/1206 OVC030
FM120600 31010KT P6SM SCT020 TEMPO 1206/1212 BKN020 PROB30
1208/1212 3/4SM BR BKN002
RMK NXT FCST BY 120600Z=

TORONTO/OSHAWA EXECUTIVE AIRPORT/ON    (show WxCam)

SPECI CYOO 120332Z AUTO 30003KT 3SM BR OVC055 M02/M02 A2997 RMK SLP158=
SPECI CYOO 120320Z AUTO 31003KT 3SM -SN OVC055 M02/M02 A2998 RMK SLP159=
METAR CYOO 120300Z AUTO 29004KT 3SM BR OVC065 M02/M02 A2997 RMK SLP158=
SPECI CYOO 120227Z AUTO 27004KT 3SM BR OVC065 M01/M02 A2997 RMK SLP156=
SPECI CYOO 120208Z AUTO 28005KT 3SM -SN FEW039 SCT055 OVC065 M01/M02 A2997 RMK SLP157=
METAR CYOO 120200Z AUTO 26004KT 2 1/2SM -SN FEW036 SCT055 OVC064 M01/M02 A2997 RMK SLP156=
SPECI CYOO 120142Z AUTO 25004KT 2 1/2SM -SN BKN046 OVC055 M01/M02 A2997 RMK SLP156=
METAR CYOO 120100Z AUTO 24002KT 3SM -SN BKN040 OVC050 M01/M02 A2996 RMK SLP155=

CYOO - No TAF is issued for this station

PETERBOROUGH/ON    (show WxCam)

SPECI CYPQ 120305Z AUTO 25003KT 3SM BR OVC015 M02/M03 A2995 RMK SLP155=
METAR CYPQ 120300Z AUTO 25002KT 2 1/2SM BR OVC015 M02/M03 A2996 RMK SLP156=
SPECI CYPQ 120259Z AUTO 25002KT 2 1/2SM BR OVC015 M02/M03 A2995 RMK SLP155=
SPECI CYPQ 120249Z AUTO VRB02KT 2 1/2SM -SN OVC017 M03/M03 A2996 RMK SLP156=
SPECI CYPQ 120248Z AUTO VRB02KT 2 1/2SM BR BKN017 OVC037 M03/M03 A2996 RMK SLP156=
SPECI CYPQ 120237Z AUTO 00000KT 2 1/2SM -SN BKN017 BKN025 OVC037 M03/M03 A2995 RMK SLP155=
SPECI CYPQ 120230Z AUTO 00000KT 2 1/4SM -SN BKN019 BKN025 OVC037 M03/M03 A2995 RMK SLP155=
SPECI CYPQ 120210Z AUTO 00000KT 1 3/4SM -SN SCT019 BKN025 OVC031 M03/M03 A2995 RMK SLP155=
SPECI CYPQ 120207Z AUTO 00000KT 1 3/4SM -SN BKN019 BKN025 OVC031 M03/M03 A2995 RMK SLP155=
SPECI CYPQ 120206Z AUTO 00000KT 1 3/4SM -SN SCT019 BKN025 OVC031 M03/M03 A2995 RMK SLP155=
SPECI CYPQ 120205Z AUTO 00000KT 1 3/4SM -SN BKN019 OVC028 M03/M03 A2995 RMK SLP155=
SPECI CYPQ 120202Z AUTO 29002KT 2SM -SN SCT019 BKN025 BKN030 OVC035 M03/M03 A2995 RMK SLP155=
METAR CYPQ 120200Z AUTO 29002KT 2 1/2SM -SN SCT021 BKN028 OVC035 M03/M03 A2995 RMK SLP155=
SPECI CYPQ 120138Z AUTO 20002KT 2 1/2SM -SN SCT035 BKN047 OVC075 M03/M03 A2995 RMK SLP153=
METAR CYPQ 120100Z AUTO 16003KT 3SM -SN OVC046 M02/M03 A2995 RMK SLP152=

*** REMARK        : Forecast period has ended; this was the last TAF issued
*** REMARQUE : La période de prévision est échue; ceci était le dernier TAF qui a été émis
TAF AMD CYPQ 120212Z 1202/1203 VRB03KT 2SM -SN OVC020 TEMPO 1202/1203
6SM -SN OVC030
RMK FCST BASED ON AUTO OBS. NXT FCST WILL BE ISSUED AT 121045Z=

TRENTON/ON    

SPECI CYTR 120326Z 00000KT 4SM -SHSN OVC045 M03/M04 A2998 RMK SC8 SLP158=
METAR CYTR 120300Z 00000KT 4SM BR OVC050 M03/M04 A2998 RMK SC8 SLP158=
METAR CYTR 120200Z 00000KT 4SM BR SCT032 OVC070 M03/M04 A2997 RMK SC3AC5 SLP156=
METAR CYTR 120100Z 00000KT 4SM BR BKN032 OVC070 M02/M04 A2997 RMK SC6AC2 SLP154=

TAF CYTR 112330Z 1200/1224 VRB03KT 6SM BR BKN030 BKN060 TEMPO
1200/1208 2SM -SHSN BR SCT030 OVC060
FM120800 VRB03KT 3SM BR SCT025 TEMPO 1208/1213 1SM BR PROB30
1208/1213 1/2SM FZFG VV002
FM121300 04005KT P6SM SCT025
BECMG 1218/1220 09008KT
RMK NXT FCST BY 120600Z=

KINGSTON/ON    

METAR CYGK 120300Z 33004KT 5SM -SN BR OVC075 M03/M04 A2998 RMK AC8 SLP157=
METAR CYGK 120200Z 01002KT 5SM -SN OVC075 M03/M03 A2996 RMK AC8 SLP153=
METAR CYGK 120100Z 32002KT 4SM -SN OVC070 M03/M03 A2996 RMK AC8 SLP151=

TAF CYGK 120138Z 1202/1204 34005KT P6SM -SHSN SCT030 OVC070 TEMPO
1202/1204 4SM -SHSN
RMK NXT FCST WILL BE ISSUED AT 121245Z=

OTTAWA/GATINEAU/QC    

LWIS CYND 120300Z AUTO 00000KT M08/M09 A2999=
METAR CYND 120200Z 32002KT 15SM -SN BKN035 OVC075 M07/M09 A2999 RMK SC6AC2 LAST STFD OBS/NEXT 121200 UTC SLP163=
METAR CYND 120100Z 00000KT 12SM -SN OVC035 M07/M09 A2999 RMK SC8 SLP162=

*** REMARK        : Forecast period has ended; this was the last TAF issued
*** REMARQUE : La période de prévision est échue; ceci était le dernier TAF qui a été émis
TAF CYND 112340Z 1200/1202 05005KT P6SM -SN SCT012 OVC030 TEMPO
1200/1202 3SM -SN BKN012 OVC030
RMK NXT FCST WILL BE ISSUED AT 121345Z=

OTTAWA/MACDONALD-CARTIER INTL/ON    

SPECI CYOW 120340Z 04005KT 340V050 10SM OVC075 M08/M09 A2998 RMK AC8 SLP160=
METAR CYOW 120300Z 04003KT 8SM -SN BKN026 OVC034 M07/M09 A2998 RMK SC6SC2 /S01/ SLP161=
METAR CYOW 120200Z 02005KT 8SM -SN OVC027 M07/M09 A2998 RMK SC8 SLP161=
SPECI CYOW 120136Z 04005KT 8SM -SN OVC029 M07/M09 A2997 RMK SC8 SLP159=
METAR CYOW 120100Z 03006KT 4SM -SN SCT032 BKN037 OVC070 M07/M09 A2998 RMK SC3SC3AC2 SLP160=

TAF CYOW 120238Z 1203/1224 02006KT P6SM OVC025 TEMPO 1203/1205 5SM
-SN OVC020
FM120500 36006KT P6SM SCT012 BKN025 TEMPO 1205/1209 BKN012 OVC025
BECMG 1207/1209 32005KT
FM121500 03007KT P6SM SCT020
BECMG 1223/1224 09008KT
RMK NXT FCST BY 120600Z=

MONTREAL INTL (MIRABEL)/QC    

METAR CYMX 120300Z 06003KT 350V100 6SM -SN OVC019 M09/M11 A2998 RMK SC8 SLP162=
METAR CYMX 120200Z 03005KT 340V080 4SM -SN OVC014 M09/M11 A2999 RMK SC8 SLP165=
METAR CYMX 120100Z 04005KT 350V080 5SM -SN OVC018 M09/M11 A2999 RMK SC8 SLP165=

TAF CYMX 112340Z 1200/1224 04005KT 21/2SM -SN OVC020 TEMPO 1200/1201
6SM -SN OVC030
FM120100 04005KT P6SM -SN OVC030 TEMPO 1201/1204 4SM -SN OVC020
PROB30 1201/1203 21/2SM -SN
FM120400 05005KT P6SM BKN025 OVC040 TEMPO 1204/1206 5SM -SN
BKN020 OVC040
FM120600 VRB03KT P6SM -SN BKN020 OVC040
FM120900 VRB03KT P6SM BKN030
FM121300 VRB03KT P6SM FEW030
RMK NXT FCST BY 120600Z=

MONTREAL/ST-HUBERT/QC    (show WxCam)

SPECI CYHU 120343Z AUTO 01005KT 3SM -SN SCT023 OVC036 M08/M10 A2998 RMK SLP156=
SPECI CYHU 120339Z AUTO 01005KT 2 1/2SM -SN SCT023 OVC036 M08/M10 A2998 RMK SLP156=
SPECI CYHU 120322Z AUTO 36006KT 2 1/2SM -SN BKN023 OVC036 M08/M10 A2998 RMK SLP156=
SPECI CYHU 120318Z AUTO 36006KT 3SM -SN BKN023 OVC036 M08/M10 A2998 RMK SLP156=
METAR CYHU 120300Z AUTO 02009KT 3SM -SN SCT022 BKN032 OVC039 M08/M10 A2998 RMK SLP157=
SPECI CYHU 120256Z AUTO 01006KT 3SM -SN SCT022 OVC034 M08/M10 A2998 RMK SLP157=
SPECI CYHU 120243Z AUTO 02008KT 3SM -SN BKN024 OVC034 M08/M10 A2999 RMK SLP158=
SPECI CYHU 120238Z AUTO 02008KT 2 1/4SM -SN BKN024 OVC034 M08/M10 A2999 RMK SLP158=
SPECI CYHU 120237Z AUTO 02008KT 2SM -SN SCT021 BKN026 OVC034 M08/M10 A2999 RMK SLP158=
SPECI CYHU 120236Z AUTO 02008KT 2SM -SN BKN023 OVC034 M08/M10 A2999 RMK SLP158=
SPECI CYHU 120234Z AUTO 02008KT 2SM -SN SCT021 BKN026 OVC034 M08/M10 A2999 RMK SLP158=
SPECI CYHU 120229Z AUTO 02009KT 2 1/4SM -SN FEW015 BKN023 BKN029 OVC036 M08/M10 A2999 RMK SLP159=
SPECI CYHU 120227Z AUTO 01008KT 2 1/2SM -SN FEW015 BKN025 OVC036 M08/M10 A2999 RMK SLP159=
SPECI CYHU 120212Z AUTO 02007KT 5SM -SN SCT017 SCT023 BKN028 OVC036 M08/M10 A2999 RMK SLP159=
METAR CYHU 120200Z AUTO 02007KT 5SM -SN BKN017 OVC023 M08/M10 A2999 RMK SLP160=
SPECI CYHU 120133Z AUTO 02008KT 3SM -SN FEW017 OVC024 M08/M10 A2999 RMK SLP159=
SPECI CYHU 120131Z AUTO 01009KT 2 1/2SM -SN BKN022 OVC027 M08/M10 A2999 RMK SLP159=
SPECI CYHU 120127Z AUTO 02007KT 2SM -SN SCT019 OVC025 M08/M10 A2999 RMK SLP159=
SPECI CYHU 120117Z AUTO 02006KT 1 1/2SM -SN SCT017 OVC028 M08/M10 A2999 RMK SLP160=
SPECI CYHU 120104Z AUTO 01006KT 1 1/2SM -SN BKN017 OVC028 M08/M10 A2999 RMK SLP161=
SPECI CYHU 120101Z AUTO 02007KT 1 1/2SM -SN SCT017 OVC028 M08/M10 A2999 RMK SLP161=
METAR CYHU 120100Z AUTO 02007KT 1 1/4SM -SN BKN017 OVC028 M08/M10 A2999 RMK SLP161=

TAF AMD CYHU 120120Z 1201/1224 02007KT 11/2SM -SN OVC020 TEMPO
1201/1202 6SM -SN OVC050
FM120200 02007KT 4SM -SN FEW008 OVC015 TEMPO 1202/1204 P6SM -SN
OVC030
FM120400 01008KT 3SM -SN BR FEW008 OVC012 TEMPO 1204/1207 P6SM
NSW PROB30 1204/1207 BKN008
FM120700 01010KT P6SM -SN BKN015 OVC025
FM121100 36010KT P6SM BKN025
FM121400 02010KT P6SM FEW030
BECMG 1220/1222 07005KT
BECMG 1222/1224 VRB03KT
RMK FCST BASED ON AUTO OBS. NXT FCST BY 120600Z=

MONTREAL/PIERRE-ELLIOTT-TRUDEAU INTL/QC    

METAR CYUL 120300Z 01009KT 4SM -SN BKN020 OVC060 M08/M10 A2998 RMK SC7SC1 SLP157=
SPECI CYUL 120220Z 01008KT 3SM -SN BKN018 OVC023 M08/M10 A2999 RMK SC6SC2 SLP158=
METAR CYUL 120200Z 01008KT 2 1/2SM -SN OVC018 M08/M10 A2999 RMK SC8 SLP159=
SPECI CYUL 120139Z 02009KT 2 1/2SM -SN OVC025 M08/M10 A2999 RMK SC8 SLP159=
METAR CYUL 120100Z 02008KT 4SM -SN FEW018 OVC024 M08/M10 A2999 RMK SC2SC6 SLP159=

TAF CYUL 120238Z 1203/1224 01008KT 21/2SM -SN OVC015 TEMPO 1203/1204
P6SM -SN OVC030 PROB30 1203/1204 BKN008
FM120400 01008KT 3SM -SN BR BKN008 OVC012 TEMPO 1204/1207 P6SM
NSW SCT008 OVC015
FM120700 01008KT P6SM -SN BKN015 OVC025
FM121000 36008KT P6SM BKN025
FM121400 02010KT P6SM FEW030
BECMG 1220/1222 11005KT
RMK NXT FCST BY 120600Z=


Your time UTC time
Weather data provided by Environment Canada and NAV CANADA